sensor_id;sensor_type;location;lat;lon;timestamp;P1;durP1;ratioP1;P2;durP2;ratioP2
23362;SDS011;11853;48.080;11.960;2023-08-06T00:00:38;5.28;;;4.85;;
23362;SDS011;11853;48.080;11.960;2023-08-06T00:03:04;5.47;;;4.65;;
23362;SDS011;11853;48.080;11.960;2023-08-06T00:05:30;5.00;;;4.45;;
23362;SDS011;11853;48.080;11.960;2023-08-06T00:07:55;5.88;;;5.38;;
23362;SDS011;11853;48.080;11.960;2023-08-06T00:10:21;5.88;;;5.00;;
23362;SDS011;11853;48.080;11.960;2023-08-06T00:12:47;5.90;;;5.40;;
23362;SDS011;11853;48.080;11.960;2023-08-06T00:15:13;5.25;;;4.78;;
23362;SDS011;11853;48.080;11.960;2023-08-06T00:17:39;5.55;;;5.07;;
23362;SDS011;11853;48.080;11.960;2023-08-06T00:20:08;5.05;;;4.55;;
23362;SDS011;11853;48.080;11.960;2023-08-06T00:22:37;6.68;;;4.78;;
23362;SDS011;11853;48.080;11.960;2023-08-06T00:25:04;5.05;;;4.65;;
23362;SDS011;11853;48.080;11.960;2023-08-06T00:27:30;5.28;;;4.88;;
23362;SDS011;11853;48.080;11.960;2023-08-06T00:29:57;5.82;;;5.05;;
23362;SDS011;11853;48.080;11.960;2023-08-06T00:32:23;4.82;;;4.43;;
23362;SDS011;11853;48.080;11.960;2023-08-06T00:34:49;4.55;;;4.22;;
23362;SDS011;11853;48.080;11.960;2023-08-06T00:37:15;4.53;;;4.13;;
23362;SDS011;11853;48.080;11.960;2023-08-06T00:39:44;4.75;;;4.35;;
23362;SDS011;11853;48.080;11.960;2023-08-06T00:42:10;5.03;;;4.35;;
23362;SDS011;11853;48.080;11.960;2023-08-06T00:44:37;4.97;;;4.57;;
23362;SDS011;11853;48.080;11.960;2023-08-06T00:47:03;4.88;;;4.47;;
23362;SDS011;11853;48.080;11.960;2023-08-06T00:49:30;5.05;;;4.63;;
23362;SDS011;11853;48.080;11.960;2023-08-06T00:51:56;4.78;;;4.25;;
23362;SDS011;11853;48.080;11.960;2023-08-06T00:54:22;5.10;;;4.60;;
23362;SDS011;11853;48.080;11.960;2023-08-06T00:56:49;4.90;;;4.18;;
23362;SDS011;11853;48.080;11.960;2023-08-06T00:59:14;5.10;;;4.65;;
23362;SDS011;11853;48.080;11.960;2023-08-06T01:01:40;4.45;;;4.13;;
23362;SDS011;11853;48.080;11.960;2023-08-06T01:04:06;4.25;;;3.65;;
23362;SDS011;11853;48.080;11.960;2023-08-06T01:15:21;3.95;;;3.65;;
23362;SDS011;11853;48.080;11.960;2023-08-06T01:17:49;4.22;;;3.83;;
23362;SDS011;11853;48.080;11.960;2023-08-06T01:20:15;4.25;;;3.85;;
23362;SDS011;11853;48.080;11.960;2023-08-06T01:22:41;4.28;;;3.88;;
23362;SDS011;11853;48.080;11.960;2023-08-06T01:25:07;4.53;;;4.13;;
23362;SDS011;11853;48.080;11.960;2023-08-06T01:27:33;4.28;;;3.88;;
23362;SDS011;11853;48.080;11.960;2023-08-06T01:30:25;4.05;;;3.75;;
23362;SDS011;11853;48.080;11.960;2023-08-06T01:32:57;4.32;;;4.03;;
23362;SDS011;11853;48.080;11.960;2023-08-06T01:35:28;4.50;;;4.00;;
23362;SDS011;11853;48.080;11.960;2023-08-06T01:37:56;4.50;;;4.10;;
23362;SDS011;11853;48.080;11.960;2023-08-06T01:40:21;3.70;;;3.40;;
23362;SDS011;11853;48.080;11.960;2023-08-06T01:42:47;4.07;;;3.78;;
23362;SDS011;11853;48.080;11.960;2023-08-06T01:45:13;6.43;;;3.42;;
23362;SDS011;11853;48.080;11.960;2023-08-06T01:47:39;3.92;;;3.45;;
23362;SDS011;11853;48.080;11.960;2023-08-06T01:50:04;4.50;;;4.07;;
23362;SDS011;11853;48.080;11.960;2023-08-06T01:52:30;5.43;;;3.40;;
23362;SDS011;11853;48.080;11.960;2023-08-06T01:54:56;3.53;;;3.30;;
23362;SDS011;11853;48.080;11.960;2023-08-06T01:57:21;3.90;;;3.60;;
23362;SDS011;11853;48.080;11.960;2023-08-06T01:59:47;4.13;;;3.83;;
23362;SDS011;11853;48.080;11.960;2023-08-06T02:02:13;5.22;;;4.72;;
23362;SDS011;11853;48.080;11.960;2023-08-06T02:04:38;4.28;;;3.88;;
23362;SDS011;11853;48.080;11.960;2023-08-06T02:07:04;4.47;;;4.07;;
23362;SDS011;11853;48.080;11.960;2023-08-06T02:09:29;4.45;;;4.05;;
23362;SDS011;11853;48.080;11.960;2023-08-06T02:11:55;4.75;;;4.05;;
23362;SDS011;11853;48.080;11.960;2023-08-06T02:14:21;4.55;;;4.10;;
23362;SDS011;11853;48.080;11.960;2023-08-06T02:16:46;4.63;;;4.22;;
23362;SDS011;11853;48.080;11.960;2023-08-06T02:19:12;4.90;;;4.50;;
23362;SDS011;11853;48.080;11.960;2023-08-06T02:21:37;5.90;;;4.70;;
23362;SDS011;11853;48.080;11.960;2023-08-06T02:24:03;5.00;;;4.18;;
23362;SDS011;11853;48.080;11.960;2023-08-06T02:26:29;5.63;;;5.03;;
23362;SDS011;11853;48.080;11.960;2023-08-06T02:28:54;4.97;;;4.57;;
23362;SDS011;11853;48.080;11.960;2023-08-06T02:31:20;4.78;;;4.38;;
23362;SDS011;11853;48.080;11.960;2023-08-06T02:33:45;4.85;;;4.38;;
23362;SDS011;11853;48.080;11.960;2023-08-06T02:36:11;5.72;;;4.38;;
23362;SDS011;11853;48.080;11.960;2023-08-06T02:38:36;4.75;;;4.15;;
23362;SDS011;11853;48.080;11.960;2023-08-06T02:41:02;6.65;;;4.60;;
23362;SDS011;11853;48.080;11.960;2023-08-06T02:43:28;4.60;;;4.30;;
23362;SDS011;11853;48.080;11.960;2023-08-06T02:45:57;4.35;;;4.05;;
23362;SDS011;11853;48.080;11.960;2023-08-06T02:48:24;4.38;;;3.85;;
23362;SDS011;11853;48.080;11.960;2023-08-06T02:50:49;4.28;;;3.97;;
23362;SDS011;11853;48.080;11.960;2023-08-06T02:53:15;3.67;;;3.38;;
23362;SDS011;11853;48.080;11.960;2023-08-06T02:55:45;4.40;;;4.00;;
23362;SDS011;11853;48.080;11.960;2023-08-06T02:58:14;4.45;;;4.03;;
23362;SDS011;11853;48.080;11.960;2023-08-06T03:00:40;3.53;;;3.25;;
23362;SDS011;11853;48.080;11.960;2023-08-06T03:03:06;3.58;;;3.35;;
23362;SDS011;11853;48.080;11.960;2023-08-06T03:05:31;3.25;;;3.05;;
23362;SDS011;11853;48.080;11.960;2023-08-06T03:07:57;4.20;;;3.38;;
23362;SDS011;11853;48.080;11.960;2023-08-06T03:10:22;3.70;;;3.20;;
23362;SDS011;11853;48.080;11.960;2023-08-06T03:12:48;4.18;;;3.38;;
23362;SDS011;11853;48.080;11.960;2023-08-06T03:15:14;3.08;;;2.88;;
23362;SDS011;11853;48.080;11.960;2023-08-06T03:17:39;2.80;;;2.60;;
23362;SDS011;11853;48.080;11.960;2023-08-06T03:20:05;3.20;;;3.00;;
23362;SDS011;11853;48.080;11.960;2023-08-06T03:22:31;3.47;;;3.17;;
23362;SDS011;11853;48.080;11.960;2023-08-06T03:24:57;3.15;;;2.83;;
23362;SDS011;11853;48.080;11.960;2023-08-06T03:27:22;5.35;;;2.90;;
23362;SDS011;11853;48.080;11.960;2023-08-06T03:29:48;4.22;;;3.10;;
23362;SDS011;11853;48.080;11.960;2023-08-06T03:32:15;3.08;;;2.70;;
23362;SDS011;11853;48.080;11.960;2023-08-06T03:34:41;3.00;;;2.80;;
23362;SDS011;11853;48.080;11.960;2023-08-06T03:37:06;3.13;;;2.88;;
23362;SDS011;11853;48.080;11.960;2023-08-06T03:39:32;2.95;;;2.72;;
23362;SDS011;11853;48.080;11.960;2023-08-06T03:41:58;3.42;;;3.13;;
23362;SDS011;11853;48.080;11.960;2023-08-06T03:44:23;2.88;;;2.67;;
23362;SDS011;11853;48.080;11.960;2023-08-06T03:46:49;4.47;;;2.53;;
23362;SDS011;11853;48.080;11.960;2023-08-06T03:49:14;3.45;;;3.15;;
23362;SDS011;11853;48.080;11.960;2023-08-06T03:51:40;2.70;;;2.50;;
23362;SDS011;11853;48.080;11.960;2023-08-06T03:54:05;2.70;;;2.50;;
23362;SDS011;11853;48.080;11.960;2023-08-06T03:56:31;3.20;;;3.00;;
23362;SDS011;11853;48.080;11.960;2023-08-06T03:58:56;2.60;;;2.45;;
23362;SDS011;11853;48.080;11.960;2023-08-06T04:01:22;2.80;;;2.60;;
23362;SDS011;11853;48.080;11.960;2023-08-06T04:03:48;2.67;;;2.47;;
23362;SDS011;11853;48.080;11.960;2023-08-06T04:06:13;2.95;;;2.60;;
23362;SDS011;11853;48.080;11.960;2023-08-06T04:08:39;2.85;;;2.40;;
23362;SDS011;11853;48.080;11.960;2023-08-06T04:11:04;4.18;;;2.33;;
23362;SDS011;11853;48.080;11.960;2023-08-06T04:13:30;2.05;;;1.95;;
23362;SDS011;11853;48.080;11.960;2023-08-06T04:16:00;2.35;;;2.15;;
23362;SDS011;11853;48.080;11.960;2023-08-06T04:18:26;4.53;;;2.38;;
23362;SDS011;11853;48.080;11.960;2023-08-06T04:20:52;2.30;;;2.10;;
23362;SDS011;11853;48.080;11.960;2023-08-06T04:23:20;2.88;;;2.60;;
23362;SDS011;11853;48.080;11.960;2023-08-06T04:25:46;3.03;;;2.65;;
23362;SDS011;11853;48.080;11.960;2023-08-06T04:28:11;2.25;;;2.15;;
23362;SDS011;11853;48.080;11.960;2023-08-06T04:30:37;2.75;;;2.50;;
23362;SDS011;11853;48.080;11.960;2023-08-06T04:33:03;3.75;;;2.33;;
23362;SDS011;11853;48.080;11.960;2023-08-06T04:35:28;2.53;;;2.33;;
23362;SDS011;11853;48.080;11.960;2023-08-06T04:37:54;2.53;;;2.33;;
23362;SDS011;11853;48.080;11.960;2023-08-06T04:40:20;3.03;;;1.95;;
23362;SDS011;11853;48.080;11.960;2023-08-06T04:42:45;3.78;;;2.33;;
23362;SDS011;11853;48.080;11.960;2023-08-06T04:45:11;2.15;;;1.95;;
23362;SDS011;11853;48.080;11.960;2023-08-06T04:47:36;6.90;;;2.53;;
23362;SDS011;11853;48.080;11.960;2023-08-06T04:50:02;2.88;;;2.13;;
23362;SDS011;11853;48.080;11.960;2023-08-06T04:52:28;2.88;;;2.03;;
23362;SDS011;11853;48.080;11.960;2023-08-06T04:54:53;2.92;;;2.33;;
23362;SDS011;11853;48.080;11.960;2023-08-06T04:57:20;2.88;;;2.42;;
23362;SDS011;11853;48.080;11.960;2023-08-06T04:59:46;2.38;;;2.17;;
23362;SDS011;11853;48.080;11.960;2023-08-06T05:02:12;3.90;;;2.20;;
23362;SDS011;11853;48.080;11.960;2023-08-06T05:04:38;4.47;;;2.28;;
23362;SDS011;11853;48.080;11.960;2023-08-06T05:07:04;4.72;;;2.60;;
23362;SDS011;11853;48.080;11.960;2023-08-06T05:09:30;2.35;;;2.25;;
23362;SDS011;11853;48.080;11.960;2023-08-06T05:11:56;2.92;;;2.63;;
23362;SDS011;11853;48.080;11.960;2023-08-06T05:14:22;2.45;;;2.15;;
23362;SDS011;11853;48.080;11.960;2023-08-06T05:16:47;2.50;;;2.20;;
23362;SDS011;11853;48.080;11.960;2023-08-06T05:19:13;2.22;;;2.00;;
23362;SDS011;11853;48.080;11.960;2023-08-06T05:21:38;2.60;;;2.20;;
23362;SDS011;11853;48.080;11.960;2023-08-06T05:24:04;4.72;;;2.30;;
23362;SDS011;11853;48.080;11.960;2023-08-06T05:26:30;2.15;;;2.05;;
23362;SDS011;11853;48.080;11.960;2023-08-06T05:28:55;2.40;;;2.20;;
23362;SDS011;11853;48.080;11.960;2023-08-06T05:31:21;2.60;;;2.40;;
23362;SDS011;11853;48.080;11.960;2023-08-06T05:33:46;2.03;;;1.92;;
23362;SDS011;11853;48.080;11.960;2023-08-06T05:36:12;2.15;;;2.05;;
23362;SDS011;11853;48.080;11.960;2023-08-06T05:38:38;2.38;;;2.25;;
23362;SDS011;11853;48.080;11.960;2023-08-06T05:41:04;2.35;;;2.15;;
23362;SDS011;11853;48.080;11.960;2023-08-06T05:43:29;2.42;;;2.22;;
23362;SDS011;11853;48.080;11.960;2023-08-06T05:45:55;2.63;;;2.25;;
23362;SDS011;11853;48.080;11.960;2023-08-06T05:48:21;2.67;;;2.22;;
23362;SDS011;11853;48.080;11.960;2023-08-06T05:50:49;2.60;;;2.40;;
23362;SDS011;11853;48.080;11.960;2023-08-06T05:53:15;2.80;;;2.60;;
23362;SDS011;11853;48.080;11.960;2023-08-06T05:55:41;2.85;;;2.10;;
23362;SDS011;11853;48.080;11.960;2023-08-06T05:58:07;2.30;;;2.10;;
23362;SDS011;11853;48.080;11.960;2023-08-06T06:00:32;2.38;;;2.15;;
23362;SDS011;11853;48.080;11.960;2023-08-06T06:02:58;2.15;;;1.95;;
23362;SDS011;11853;48.080;11.960;2023-08-06T06:05:23;5.38;;;2.13;;
23362;SDS011;11853;48.080;11.960;2023-08-06T06:07:49;2.40;;;2.20;;
23362;SDS011;11853;48.080;11.960;2023-08-06T06:10:15;2.40;;;2.10;;
23362;SDS011;11853;48.080;11.960;2023-08-06T06:12:40;2.20;;;2.00;;
23362;SDS011;11853;48.080;11.960;2023-08-06T06:15:06;2.22;;;2.03;;
23362;SDS011;11853;48.080;11.960;2023-08-06T06:17:32;3.17;;;1.88;;
23362;SDS011;11853;48.080;11.960;2023-08-06T06:19:58;2.40;;;2.20;;
23362;SDS011;11853;48.080;11.960;2023-08-06T06:22:24;2.38;;;1.88;;
23362;SDS011;11853;48.080;11.960;2023-08-06T06:24:49;2.50;;;2.30;;
23362;SDS011;11853;48.080;11.960;2023-08-06T06:27:15;2.13;;;1.95;;
23362;SDS011;11853;48.080;11.960;2023-08-06T06:29:40;3.53;;;2.00;;
23362;SDS011;11853;48.080;11.960;2023-08-06T06:32:06;2.20;;;2.00;;
23362;SDS011;11853;48.080;11.960;2023-08-06T06:34:32;2.00;;;1.70;;
23362;SDS011;11853;48.080;11.960;2023-08-06T06:36:57;2.25;;;2.05;;
23362;SDS011;11853;48.080;11.960;2023-08-06T06:39:23;2.17;;;2.08;;
23362;SDS011;11853;48.080;11.960;2023-08-06T06:41:48;2.25;;;2.05;;
23362;SDS011;11853;48.080;11.960;2023-08-06T06:44:14;2.53;;;2.13;;
23362;SDS011;11853;48.080;11.960;2023-08-06T06:46:40;2.22;;;2.03;;
23362;SDS011;11853;48.080;11.960;2023-08-06T06:49:06;2.83;;;2.00;;
23362;SDS011;11853;48.080;11.960;2023-08-06T06:51:31;1.65;;;1.55;;
23362;SDS011;11853;48.080;11.960;2023-08-06T06:53:57;2.30;;;2.10;;
23362;SDS011;11853;48.080;11.960;2023-08-06T06:56:23;2.42;;;1.90;;
23362;SDS011;11853;48.080;11.960;2023-08-06T06:58:49;1.83;;;1.73;;
23362;SDS011;11853;48.080;11.960;2023-08-06T07:01:15;1.60;;;1.50;;
23362;SDS011;11853;48.080;11.960;2023-08-06T07:03:40;1.80;;;1.70;;
23362;SDS011;11853;48.080;11.960;2023-08-06T07:06:06;2.47;;;1.92;;
23362;SDS011;11853;48.080;11.960;2023-08-06T07:08:32;5.35;;;1.75;;
23362;SDS011;11853;48.080;11.960;2023-08-06T07:11:01;2.85;;;1.90;;
23362;SDS011;11853;48.080;11.960;2023-08-06T07:13:31;2.03;;;1.85;;
23362;SDS011;11853;48.080;11.960;2023-08-06T07:15:57;2.08;;;1.83;;
23362;SDS011;11853;48.080;11.960;2023-08-06T07:18:23;2.22;;;2.03;;
23362;SDS011;11853;48.080;11.960;2023-08-06T07:20:52;1.80;;;1.70;;
23362;SDS011;11853;48.080;11.960;2023-08-06T07:23:21;2.58;;;1.70;;
23362;SDS011;11853;48.080;11.960;2023-08-06T07:25:48;1.98;;;1.77;;
23362;SDS011;11853;48.080;11.960;2023-08-06T07:28:14;2.85;;;1.80;;
23362;SDS011;11853;48.080;11.960;2023-08-06T07:30:41;1.65;;;1.42;;
23362;SDS011;11853;48.080;11.960;2023-08-06T07:33:07;1.85;;;1.70;;
23362;SDS011;11853;48.080;11.960;2023-08-06T07:35:33;1.98;;;1.50;;
23362;SDS011;11853;48.080;11.960;2023-08-06T07:37:59;2.00;;;1.50;;
23362;SDS011;11853;48.080;11.960;2023-08-06T07:40:24;2.80;;;1.83;;
23362;SDS011;11853;48.080;11.960;2023-08-06T07:42:50;1.73;;;1.63;;
23362;SDS011;11853;48.080;11.960;2023-08-06T07:45:16;1.60;;;1.50;;
23362;SDS011;11853;48.080;11.960;2023-08-06T07:47:41;3.03;;;1.45;;
23362;SDS011;11853;48.080;11.960;2023-08-06T07:50:08;3.15;;;1.42;;
23362;SDS011;11853;48.080;11.960;2023-08-06T07:52:34;1.95;;;1.20;;
23362;SDS011;11853;48.080;11.960;2023-08-06T07:55:00;2.25;;;1.08;;
23362;SDS011;11853;48.080;11.960;2023-08-06T07:57:27;1.50;;;1.17;;
23362;SDS011;11853;48.080;11.960;2023-08-06T07:59:52;2.05;;;1.13;;
23362;SDS011;11853;48.080;11.960;2023-08-06T08:02:19;1.10;;;0.70;;
23362;SDS011;11853;48.080;11.960;2023-08-06T08:04:45;2.65;;;1.20;;
23362;SDS011;11853;48.080;11.960;2023-08-06T08:07:12;1.13;;;0.95;;
23362;SDS011;11853;48.080;11.960;2023-08-06T08:09:38;1.92;;;1.02;;
23362;SDS011;11853;48.080;11.960;2023-08-06T08:12:04;4.25;;;1.08;;
23362;SDS011;11853;48.080;11.960;2023-08-06T08:14:30;2.00;;;1.20;;
23362;SDS011;11853;48.080;11.960;2023-08-06T08:17:00;2.00;;;1.38;;
23362;SDS011;11853;48.080;11.960;2023-08-06T08:19:27;2.50;;;0.95;;
23362;SDS011;11853;48.080;11.960;2023-08-06T08:21:53;1.92;;;1.25;;
23362;SDS011;11853;48.080;11.960;2023-08-06T08:24:19;2.25;;;1.20;;
23362;SDS011;11853;48.080;11.960;2023-08-06T08:26:49;3.65;;;1.25;;
23362;SDS011;11853;48.080;11.960;2023-08-06T08:29:17;1.35;;;1.05;;
23362;SDS011;11853;48.080;11.960;2023-08-06T08:31:44;4.00;;;1.58;;
23362;SDS011;11853;48.080;11.960;2023-08-06T08:34:10;1.77;;;1.00;;
23362;SDS011;11853;48.080;11.960;2023-08-06T08:36:36;1.60;;;1.02;;
23362;SDS011;11853;48.080;11.960;2023-08-06T08:39:01;1.83;;;1.23;;
23362;SDS011;11853;48.080;11.960;2023-08-06T08:41:30;2.70;;;1.27;;
23362;SDS011;11853;48.080;11.960;2023-08-06T08:43:58;2.97;;;1.20;;
23362;SDS011;11853;48.080;11.960;2023-08-06T08:46:27;1.77;;;1.10;;
23362;SDS011;11853;48.080;11.960;2023-08-06T08:48:56;2.85;;;1.35;;
23362;SDS011;11853;48.080;11.960;2023-08-06T08:51:25;1.88;;;0.90;;
23362;SDS011;11853;48.080;11.960;2023-08-06T08:53:52;2.15;;;1.00;;
23362;SDS011;11853;48.080;11.960;2023-08-06T08:56:21;1.35;;;0.90;;
23362;SDS011;11853;48.080;11.960;2023-08-06T08:58:47;1.23;;;1.10;;
23362;SDS011;11853;48.080;11.960;2023-08-06T09:01:13;1.17;;;1.02;;
23362;SDS011;11853;48.080;11.960;2023-08-06T09:03:40;2.20;;;0.90;;
23362;SDS011;11853;48.080;11.960;2023-08-06T09:06:06;1.40;;;0.90;;
23362;SDS011;11853;48.080;11.960;2023-08-06T09:08:34;1.42;;;0.70;;
23362;SDS011;11853;48.080;11.960;2023-08-06T09:11:03;2.05;;;0.90;;
23362;SDS011;11853;48.080;11.960;2023-08-06T09:13:30;0.82;;;0.73;;
23362;SDS011;11853;48.080;11.960;2023-08-06T09:15:55;1.55;;;0.80;;
23362;SDS011;11853;48.080;11.960;2023-08-06T09:18:28;0.93;;;0.65;;
23362;SDS011;11853;48.080;11.960;2023-08-06T09:20:55;0.60;;;0.45;;
23362;SDS011;11853;48.080;11.960;2023-08-06T09:23:25;2.88;;;0.90;;
23362;SDS011;11853;48.080;11.960;2023-08-06T09:25:54;4.07;;;0.75;;
23362;SDS011;11853;48.080;11.960;2023-08-06T09:28:20;1.92;;;0.50;;
23362;SDS011;11853;48.080;11.960;2023-08-06T09:30:47;1.55;;;0.40;;
23362;SDS011;11853;48.080;11.960;2023-08-06T09:33:17;1.98;;;0.80;;
23362;SDS011;11853;48.080;11.960;2023-08-06T09:35:45;1.73;;;0.65;;
23362;SDS011;11853;48.080;11.960;2023-08-06T09:38:12;1.95;;;0.50;;
23362;SDS011;11853;48.080;11.960;2023-08-06T09:40:38;1.13;;;0.50;;
23362;SDS011;11853;48.080;11.960;2023-08-06T09:43:05;1.40;;;0.60;;
23362;SDS011;11853;48.080;11.960;2023-08-06T09:45:31;3.40;;;0.43;;
23362;SDS011;11853;48.080;11.960;2023-08-06T09:47:58;2.30;;;0.30;;
23362;SDS011;11853;48.080;11.960;2023-08-06T09:50:29;0.95;;;0.50;;
23362;SDS011;11853;48.080;11.960;2023-08-06T09:52:59;2.28;;;0.40;;
23362;SDS011;11853;48.080;11.960;2023-08-06T09:55:25;1.00;;;0.50;;
23362;SDS011;11853;48.080;11.960;2023-08-06T09:57:52;0.95;;;0.22;;
23362;SDS011;11853;48.080;11.960;2023-08-06T10:00:18;1.20;;;0.17;;
23362;SDS011;11853;48.080;11.960;2023-08-06T10:02:44;0.73;;;0.43;;
23362;SDS011;11853;48.080;11.960;2023-08-06T10:05:10;0.70;;;0.30;;
23362;SDS011;11853;48.080;11.960;2023-08-06T10:07:36;0.08;;;0.08;;
23362;SDS011;11853;48.080;11.960;2023-08-06T10:10:04;0.10;;;0.10;;
23362;SDS011;11853;48.080;11.960;2023-08-06T10:12:34;0.60;;;0.40;;
23362;SDS011;11853;48.080;11.960;2023-08-06T10:15:07;0.52;;;0.20;;
23362;SDS011;11853;48.080;11.960;2023-08-06T10:20:03;2.47;;;0.40;;
23362;SDS011;11853;48.080;11.960;2023-08-06T10:22:32;0.10;;;0.10;;
23362;SDS011;11853;48.080;11.960;2023-08-06T10:24:59;1.27;;;0.35;;
23362;SDS011;11853;48.080;11.960;2023-08-06T10:27:33;1.65;;;0.30;;
23362;SDS011;11853;48.080;11.960;2023-08-06T10:35:30;0.32;;;0.32;;
23362;SDS011;11853;48.080;11.960;2023-08-06T10:38:05;0.77;;;0.10;;
23362;SDS011;11853;48.080;11.960;2023-08-06T10:40:34;1.30;;;0.20;;
23362;SDS011;11853;48.080;11.960;2023-08-06T10:43:00;0.10;;;0.10;;
23362;SDS011;11853;48.080;11.960;2023-08-06T10:45:27;1.30;;;0.13;;
23362;SDS011;11853;48.080;11.960;2023-08-06T10:47:54;0.30;;;0.28;;
23362;SDS011;11853;48.080;11.960;2023-08-06T10:50:23;0.47;;;0.10;;
23362;SDS011;11853;48.080;11.960;2023-08-06T10:52:49;1.42;;;0.20;;
23362;SDS011;11853;48.080;11.960;2023-08-06T10:55:25;0.10;;;0.10;;
23362;SDS011;11853;48.080;11.960;2023-08-06T10:57:52;1.42;;;0.13;;
23362;SDS011;11853;48.080;11.960;2023-08-06T11:00:18;0.10;;;0.10;;
23362;SDS011;11853;48.080;11.960;2023-08-06T11:02:46;0.10;;;0.10;;
23362;SDS011;11853;48.080;11.960;2023-08-06T11:05:13;0.10;;;0.10;;
23362;SDS011;11853;48.080;11.960;2023-08-06T11:07:39;1.17;;;0.20;;
23362;SDS011;11853;48.080;11.960;2023-08-06T11:10:05;3.50;;;0.47;;
23362;SDS011;11853;48.080;11.960;2023-08-06T11:12:33;0.28;;;0.20;;
23362;SDS011;11853;48.080;11.960;2023-08-06T11:14:59;0.63;;;0.20;;
23362;SDS011;11853;48.080;11.960;2023-08-06T11:17:30;0.20;;;0.10;;
23362;SDS011;11853;48.080;11.960;2023-08-06T11:20:01;1.67;;;0.17;;
23362;SDS011;11853;48.080;11.960;2023-08-06T11:22:30;3.08;;;0.22;;
23362;SDS011;11853;48.080;11.960;2023-08-06T11:24:56;0.32;;;0.20;;
23362;SDS011;11853;48.080;11.960;2023-08-06T11:27:22;1.33;;;0.10;;
23362;SDS011;11853;48.080;11.960;2023-08-06T11:29:48;0.73;;;0.10;;
23362;SDS011;11853;48.080;11.960;2023-08-06T11:32:14;1.75;;;0.20;;
23362;SDS011;11853;48.080;11.960;2023-08-06T11:34:39;1.35;;;0.25;;
23362;SDS011;11853;48.080;11.960;2023-08-06T11:37:06;1.05;;;0.10;;
23362;SDS011;11853;48.080;11.960;2023-08-06T11:39:34;0.65;;;0.20;;
23362;SDS011;11853;48.080;11.960;2023-08-06T11:42:02;0.20;;;0.10;;
23362;SDS011;11853;48.080;11.960;2023-08-06T11:44:34;0.35;;;0.25;;
23362;SDS011;11853;48.080;11.960;2023-08-06T11:47:02;0.25;;;0.20;;
23362;SDS011;11853;48.080;11.960;2023-08-06T11:49:37;0.10;;;0.10;;
23362;SDS011;11853;48.080;11.960;2023-08-06T11:54:37;1.20;;;0.10;;
23362;SDS011;11853;48.080;11.960;2023-08-06T11:57:04;3.20;;;0.20;;
23362;SDS011;11853;48.080;11.960;2023-08-06T11:59:30;4.03;;;0.63;;
23362;SDS011;11853;48.080;11.960;2023-08-06T12:01:56;1.40;;;0.32;;
23362;SDS011;11853;48.080;11.960;2023-08-06T12:04:22;0.15;;;0.10;;
23362;SDS011;11853;48.080;11.960;2023-08-06T12:06:47;1.02;;;0.10;;
23362;SDS011;11853;48.080;11.960;2023-08-06T12:09:13;0.00;;;0.00;;
23362;SDS011;11853;48.080;11.960;2023-08-06T12:11:39;0.20;;;0.10;;
23362;SDS011;11853;48.080;11.960;2023-08-06T12:14:04;1.38;;;0.20;;
23362;SDS011;11853;48.080;11.960;2023-08-06T12:16:30;2.08;;;0.13;;
23362;SDS011;11853;48.080;11.960;2023-08-06T12:18:56;2.00;;;0.20;;
23362;SDS011;11853;48.080;11.960;2023-08-06T12:21:21;0.55;;;0.30;;
23362;SDS011;11853;48.080;11.960;2023-08-06T12:23:47;1.05;;;0.40;;
23362;SDS011;11853;48.080;11.960;2023-08-06T12:26:13;1.27;;;0.10;;
23362;SDS011;11853;48.080;11.960;2023-08-06T12:28:38;0.15;;;0.10;;
23362;SDS011;11853;48.080;11.960;2023-08-06T12:31:04;0.52;;;0.20;;
23362;SDS011;11853;48.080;11.960;2023-08-06T12:33:30;0.22;;;0.03;;
23362;SDS011;11853;48.080;11.960;2023-08-06T12:35:55;0.45;;;0.05;;
23362;SDS011;11853;48.080;11.960;2023-08-06T12:38:22;0.50;;;0.20;;
23362;SDS011;11853;48.080;11.960;2023-08-06T12:40:48;0.20;;;0.20;;
23362;SDS011;11853;48.080;11.960;2023-08-06T12:43:13;1.10;;;0.20;;
23362;SDS011;11853;48.080;11.960;2023-08-06T12:45:39;0.90;;;0.10;;
23362;SDS011;11853;48.080;11.960;2023-08-06T12:48:05;0.28;;;0.10;;
23362;SDS011;11853;48.080;11.960;2023-08-06T12:50:30;0.05;;;0.05;;
23362;SDS011;11853;48.080;11.960;2023-08-06T12:52:57;0.20;;;0.10;;
23362;SDS011;11853;48.080;11.960;2023-08-06T12:55:23;0.20;;;0.10;;
23362;SDS011;11853;48.080;11.960;2023-08-06T12:57:49;0.20;;;0.20;;
23362;SDS011;11853;48.080;11.960;2023-08-06T13:00:14;0.20;;;0.20;;
23362;SDS011;11853;48.080;11.960;2023-08-06T13:02:40;0.17;;;0.17;;
23362;SDS011;11853;48.080;11.960;2023-08-06T13:05:05;0.38;;;0.10;;
23362;SDS011;11853;48.080;11.960;2023-08-06T13:07:32;0.82;;;0.10;;
23362;SDS011;11853;48.080;11.960;2023-08-06T13:09:57;1.75;;;0.10;;
23362;SDS011;11853;48.080;11.960;2023-08-06T13:12:23;0.20;;;0.05;;
23362;SDS011;11853;48.080;11.960;2023-08-06T13:14:49;0.43;;;0.10;;
23362;SDS011;11853;48.080;11.960;2023-08-06T13:17:14;0.65;;;0.20;;
23362;SDS011;11853;48.080;11.960;2023-08-06T13:19:40;0.40;;;0.17;;
23362;SDS011;11853;48.080;11.960;2023-08-06T13:22:05;0.22;;;0.13;;
23362;SDS011;11853;48.080;11.960;2023-08-06T13:24:33;0.10;;;0.10;;
23362;SDS011;11853;48.080;11.960;2023-08-06T13:27:00;0.30;;;0.05;;
23362;SDS011;11853;48.080;11.960;2023-08-06T13:29:26;4.40;;;0.60;;
23362;SDS011;11853;48.080;11.960;2023-08-06T13:31:52;0.20;;;0.20;;
23362;SDS011;11853;48.080;11.960;2023-08-06T13:34:19;0.05;;;0.05;;
23362;SDS011;11853;48.080;11.960;2023-08-06T13:36:45;1.02;;;0.17;;
23362;SDS011;11853;48.080;11.960;2023-08-06T13:39:10;0.28;;;0.10;;
23362;SDS011;11853;48.080;11.960;2023-08-06T13:41:37;0.20;;;0.20;;
23362;SDS011;11853;48.080;11.960;2023-08-06T13:44:04;0.10;;;0.00;;
23362;SDS011;11853;48.080;11.960;2023-08-06T13:46:29;0.25;;;0.10;;
23362;SDS011;11853;48.080;11.960;2023-08-06T13:48:55;0.17;;;0.10;;
23362;SDS011;11853;48.080;11.960;2023-08-06T13:51:21;0.10;;;0.10;;
23362;SDS011;11853;48.080;11.960;2023-08-06T13:53:46;0.00;;;0.00;;
23362;SDS011;11853;48.080;11.960;2023-08-06T13:56:12;0.10;;;0.10;;
23362;SDS011;11853;48.080;11.960;2023-08-06T13:58:40;0.70;;;0.17;;
23362;SDS011;11853;48.080;11.960;2023-08-06T14:01:06;2.22;;;0.15;;
23362;SDS011;11853;48.080;11.960;2023-08-06T14:03:32;0.10;;;0.10;;
23362;SDS011;11853;48.080;11.960;2023-08-06T14:05:57;0.63;;;0.13;;
23362;SDS011;11853;48.080;11.960;2023-08-06T14:08:23;0.10;;;0.10;;
23362;SDS011;11853;48.080;11.960;2023-08-06T14:10:50;0.30;;;0.20;;
23362;SDS011;11853;48.080;11.960;2023-08-06T14:13:16;1.27;;;0.10;;
23362;SDS011;11853;48.080;11.960;2023-08-06T14:15:43;0.22;;;0.10;;
23362;SDS011;11853;48.080;11.960;2023-08-06T14:18:12;0.30;;;0.13;;
23362;SDS011;11853;48.080;11.960;2023-08-06T14:20:41;1.02;;;0.20;;
23362;SDS011;11853;48.080;11.960;2023-08-06T14:23:07;2.97;;;0.20;;
23362;SDS011;11853;48.080;11.960;2023-08-06T14:25:33;0.52;;;0.10;;
23362;SDS011;11853;48.080;11.960;2023-08-06T14:27:59;0.10;;;0.10;;
23362;SDS011;11853;48.080;11.960;2023-08-06T14:30:24;0.20;;;0.20;;
23362;SDS011;11853;48.080;11.960;2023-08-06T14:32:50;0.30;;;0.30;;
23362;SDS011;11853;48.080;11.960;2023-08-06T14:35:15;0.80;;;0.20;;
23362;SDS011;11853;48.080;11.960;2023-08-06T14:37:41;0.68;;;0.17;;
23362;SDS011;11853;48.080;11.960;2023-08-06T14:40:07;1.02;;;0.10;;
23362;SDS011;11853;48.080;11.960;2023-08-06T14:42:33;0.10;;;0.10;;
23362;SDS011;11853;48.080;11.960;2023-08-06T14:44:58;0.65;;;0.20;;
23362;SDS011;11853;48.080;11.960;2023-08-06T14:47:24;0.28;;;0.28;;